createdAt,value
2022-12-09T00:00:04.367Z,4.90
2022-12-09T00:02:31.496Z,5.07
2022-12-09T00:04:58.513Z,5.57
2022-12-09T00:07:25.356Z,5.33
2022-12-09T00:09:52.008Z,4.67
2022-12-09T00:12:18.892Z,5.07
2022-12-09T00:14:45.590Z,5.17
2022-12-09T00:17:18.443Z,5.20
2022-12-09T00:19:46.625Z,5.03
2022-12-09T00:22:13.570Z,5.23
2022-12-09T00:24:40.418Z,5.03
2022-12-09T00:27:07.383Z,4.67
2022-12-09T00:29:34.219Z,4.70
2022-12-09T00:32:01.189Z,4.80
2022-12-09T00:34:28.011Z,4.90
2022-12-09T00:36:54.677Z,4.80
2022-12-09T00:39:21.419Z,4.87
2022-12-09T00:41:49.901Z,4.50
2022-12-09T00:44:16.802Z,4.80
2022-12-09T00:46:43.616Z,4.23
2022-12-09T00:49:11.004Z,4.87
2022-12-09T00:51:37.715Z,4.73
2022-12-09T00:54:04.686Z,5.10
2022-12-09T00:56:31.573Z,4.53
2022-12-09T00:58:58.862Z,5.33
2022-12-09T01:01:26.690Z,4.83
2022-12-09T01:03:53.727Z,4.80
2022-12-09T01:06:23.181Z,4.67
2022-12-09T01:08:50.270Z,4.97
2022-12-09T01:11:20.047Z,4.80
2022-12-09T01:13:47.524Z,4.80
2022-12-09T01:16:19.215Z,4.77
2022-12-09T01:18:46.595Z,5.13
2022-12-09T01:21:14.016Z,5.30
2022-12-09T01:23:41.174Z,4.93
2022-12-09T01:26:08.547Z,4.90
2022-12-09T01:28:36.622Z,4.57
2022-12-09T01:31:14.894Z,4.83
2022-12-09T01:33:42.636Z,4.43
2022-12-09T01:36:29.318Z,4.27
2022-12-09T01:38:57.691Z,4.87
2022-12-09T01:41:24.678Z,4.90
2022-12-09T01:44:26.671Z,4.50
2022-12-09T01:46:58.886Z,4.50
2022-12-09T01:49:30.846Z,4.70
2022-12-09T01:52:08.150Z,4.73
2022-12-09T01:54:35.246Z,4.60
2022-12-09T01:57:02.481Z,5.10
2022-12-09T01:59:29.800Z,4.77
2022-12-09T02:01:59.242Z,4.90
2022-12-09T02:04:30.126Z,4.60
2022-12-09T02:06:58.527Z,4.87
2022-12-09T02:09:25.659Z,4.97
2022-12-09T02:12:04.639Z,4.80
2022-12-09T02:14:43.517Z,4.90
2022-12-09T02:17:10.207Z,4.43
2022-12-09T02:20:13.433Z,4.90
2022-12-09T02:22:52.288Z,4.40
2022-12-09T02:25:44.703Z,5.07
2022-12-09T02:28:24.821Z,4.63
2022-12-09T02:31:02.909Z,4.13
2022-12-09T02:33:37.290Z,5.00
2022-12-09T02:36:08.174Z,4.43
2022-12-09T02:38:35.904Z,4.50
2022-12-09T02:41:06.999Z,4.70
2022-12-09T02:43:37.358Z,4.87
2022-12-09T02:46:06.782Z,4.43
2022-12-09T02:48:43.039Z,4.80
2022-12-09T02:51:13.564Z,4.67
2022-12-09T02:53:40.838Z,4.53
2022-12-09T02:56:08.363Z,4.57
2022-12-09T02:58:35.795Z,4.50
2022-12-09T03:01:02.885Z,4.67
2022-12-09T03:03:32.555Z,4.77
2022-12-09T03:06:09.018Z,4.10
2022-12-09T03:08:35.793Z,4.20
2022-12-09T03:11:08.374Z,4.63
2022-12-09T03:14:00.148Z,4.43
2022-12-09T03:16:53.218Z,4.33
2022-12-09T03:19:30.197Z,4.50
2022-12-09T03:21:59.792Z,4.20
2022-12-09T03:24:30.930Z,4.43
2022-12-09T03:26:59.243Z,4.60
2022-12-09T03:29:27.546Z,4.60
2022-12-09T03:31:56.257Z,4.47
2022-12-09T03:34:28.749Z,4.90
2022-12-09T03:36:57.725Z,4.07
2022-12-09T03:39:27.335Z,4.50
2022-12-09T03:41:57.524Z,4.30
2022-12-09T03:45:01.313Z,4.47
2022-12-09T03:47:28.469Z,4.13
2022-12-09T03:49:55.343Z,3.87
2022-12-09T03:52:36.841Z,4.30
2022-12-09T03:55:09.443Z,4.90
2022-12-09T03:57:38.602Z,4.43
2022-12-09T04:00:07.049Z,4.87
2022-12-09T04:02:34.299Z,4.43
2022-12-09T04:05:01.538Z,4.33
2022-12-09T04:07:28.409Z,4.33
2022-12-09T04:09:55.312Z,4.40
2022-12-09T04:12:22.007Z,4.60
2022-12-09T04:14:49.105Z,4.13
2022-12-09T04:17:16.119Z,4.40
2022-12-09T04:19:43.284Z,4.37
2022-12-09T04:22:10.575Z,4.37
2022-12-09T04:24:37.693Z,4.37
2022-12-09T04:27:04.427Z,4.30
2022-12-09T04:29:31.404Z,4.40
2022-12-09T04:31:58.271Z,4.27
2022-12-09T04:34:25.851Z,4.17
2022-12-09T04:36:52.846Z,4.23
2022-12-09T04:39:19.752Z,4.30
2022-12-09T04:41:46.459Z,4.27
2022-12-09T04:44:13.517Z,4.60
2022-12-09T04:46:40.435Z,4.23
2022-12-09T04:49:07.546Z,4.10
2022-12-09T04:51:39.477Z,4.10
2022-12-09T04:54:07.784Z,4.40
2022-12-09T04:56:34.928Z,4.07
2022-12-09T04:59:01.787Z,4.40
2022-12-09T05:01:31.238Z,4.20
2022-12-09T05:03:58.982Z,3.97
2022-12-09T05:06:26.834Z,4.90
2022-12-09T05:08:54.126Z,4.30
2022-12-09T05:11:23.692Z,4.37
2022-12-09T05:13:51.963Z,4.20
2022-12-09T05:16:20.100Z,4.33
2022-12-09T05:18:48.413Z,4.53
2022-12-09T05:21:19.219Z,4.37
2022-12-09T05:23:46.568Z,4.60
2022-12-09T05:26:16.152Z,4.40
2022-12-09T05:28:43.635Z,4.50
2022-12-09T05:31:15.425Z,3.80
2022-12-09T05:33:43.182Z,4.10
2022-12-09T05:36:15.134Z,4.20
2022-12-09T05:38:42.439Z,4.27
2022-12-09T05:41:09.519Z,4.57
2022-12-09T05:43:37.122Z,4.70
2022-12-09T05:46:05.715Z,4.37
2022-12-09T05:48:32.848Z,4.43
2022-12-09T05:51:05.876Z,4.47
2022-12-09T05:53:33.475Z,3.93
2022-12-09T05:56:00.808Z,4.70
2022-12-09T05:58:27.831Z,4.70
2022-12-09T06:00:56.692Z,4.20
2022-12-09T06:03:25.138Z,4.50
2022-12-09T06:05:52.351Z,4.63
2022-12-09T06:08:20.436Z,4.20
2022-12-09T06:10:47.444Z,4.40
2022-12-09T06:13:14.823Z,4.40
2022-12-09T06:15:43.083Z,4.20
2022-12-09T06:18:10.025Z,4.30
2022-12-09T06:20:41.118Z,4.53
2022-12-09T06:23:08.559Z,4.00
2022-12-09T06:25:35.718Z,4.57
2022-12-09T06:28:02.792Z,4.10
2022-12-09T06:30:29.856Z,4.37
2022-12-09T06:32:57.110Z,4.03
2022-12-09T06:35:24.373Z,4.50
2022-12-09T06:37:53.551Z,4.27
2022-12-09T06:40:23.524Z,4.33
2022-12-09T06:42:51.532Z,4.47
2022-12-09T06:45:19.925Z,4.60
2022-12-09T06:47:47.559Z,5.10
2022-12-09T06:50:15.337Z,5.83
2022-12-09T06:52:42.300Z,5.87
2022-12-09T06:55:10.031Z,6.13
2022-12-09T06:57:37.068Z,6.23
2022-12-09T07:00:05.616Z,6.50
2022-12-09T07:02:36.783Z,6.53
2022-12-09T07:05:07.886Z,6.30
2022-12-09T07:07:35.145Z,5.93
2022-12-09T07:10:04.113Z,6.60
2022-12-09T07:12:31.556Z,6.70
2022-12-09T07:14:58.799Z,6.70
2022-12-09T07:17:25.874Z,6.40
2022-12-09T07:19:53.483Z,6.07
2022-12-09T07:22:20.359Z,7.13
2022-12-09T07:24:47.482Z,6.50
2022-12-09T07:27:19.205Z,6.10
2022-12-09T07:29:47.049Z,6.20
2022-12-09T07:32:14.159Z,6.27
2022-12-09T07:34:43.180Z,7.03
2022-12-09T07:37:10.273Z,6.67
2022-12-09T07:39:37.569Z,6.50
2022-12-09T07:42:05.359Z,7.30
2022-12-09T07:44:32.439Z,7.73
2022-12-09T07:46:59.395Z,7.33
2022-12-09T07:49:26.617Z,6.93
2022-12-09T07:51:53.595Z,6.30
2022-12-09T07:54:20.622Z,6.47
2022-12-09T07:56:48.966Z,7.00
2022-12-09T07:59:16.978Z,6.60
2022-12-09T08:01:44.751Z,6.17
2022-12-09T08:04:12.531Z,6.53
2022-12-09T08:06:40.702Z,6.27
2022-12-09T08:09:11.151Z,6.47
2022-12-09T08:11:38.544Z,5.93
2022-12-09T08:14:11.454Z,5.80
2022-12-09T08:16:39.693Z,6.07
2022-12-09T08:19:07.179Z,5.80
2022-12-09T08:21:34.422Z,6.03
2022-12-09T08:24:03.289Z,5.93
2022-12-09T08:26:31.706Z,6.13
2022-12-09T08:28:59.760Z,5.90
2022-12-09T08:31:27.569Z,5.63
2022-12-09T08:33:55.116Z,6.00
2022-12-09T08:36:24.931Z,5.77
2022-12-09T08:38:52.371Z,5.40
2022-12-09T08:41:38.111Z,5.43
2022-12-09T08:44:08.872Z,5.37
2022-12-09T08:46:37.290Z,5.23
2022-12-09T08:49:07.387Z,5.50
2022-12-09T08:51:35.100Z,5.50
2022-12-09T08:54:02.449Z,5.70
2022-12-09T08:56:30.599Z,5.43
2022-12-09T08:58:58.012Z,5.43
2022-12-09T09:01:32.365Z,5.20
2022-12-09T09:04:02.773Z,4.83
2022-12-09T09:06:31.447Z,5.20
2022-12-09T09:08:59.324Z,5.50
2022-12-09T09:11:26.859Z,4.80
2022-12-09T09:13:53.869Z,4.83
2022-12-09T09:16:23.777Z,5.03
2022-12-09T09:18:50.958Z,5.57
2022-12-09T09:21:21.008Z,5.00
2022-12-09T09:23:48.191Z,4.67
2022-12-09T09:26:19.255Z,5.17
2022-12-09T09:28:46.599Z,4.97
2022-12-09T09:31:16.802Z,4.77
2022-12-09T09:33:44.583Z,4.50
2022-12-09T09:36:25.664Z,4.90
2022-12-09T09:38:54.851Z,4.70
2022-12-09T09:41:53.492Z,4.33
2022-12-09T09:47:38.671Z,4.43
2022-12-09T09:50:28.538Z,5.00
2022-12-09T09:52:56.329Z,4.77
2022-12-09T09:55:46.053Z,4.23
2022-12-09T09:58:18.176Z,4.70
2022-12-09T10:00:58.380Z,5.23
2022-12-09T10:03:39.669Z,4.83
2022-12-09T10:06:20.520Z,5.00
2022-12-09T10:09:09.367Z,4.57
2022-12-09T10:11:48.532Z,5.20
2022-12-09T10:14:17.533Z,4.70
2022-12-09T10:16:56.434Z,4.63
2022-12-09T10:19:36.334Z,5.13
2022-12-09T10:22:23.274Z,5.13
2022-12-09T10:24:52.458Z,5.50
2022-12-09T10:27:38.207Z,5.17
2022-12-09T10:30:05.647Z,5.30
2022-12-09T10:32:34.776Z,5.30
2022-12-09T10:35:02.788Z,5.13
2022-12-09T10:37:33.055Z,5.43
2022-12-09T10:40:25.657Z,5.33
2022-12-09T10:43:17.672Z,5.73
2022-12-09T10:48:48.017Z,5.40
2022-12-09T10:51:19.659Z,5.50
2022-12-09T10:54:15.360Z,5.23
2022-12-09T10:57:06.490Z,5.23
2022-12-09T10:59:34.694Z,5.40
2022-12-09T11:02:04.603Z,5.10
2022-12-09T11:04:32.863Z,5.40
2022-12-09T11:07:07.722Z,4.87
2022-12-09T11:09:36.715Z,5.37
2022-12-09T11:12:15.290Z,5.30
2022-12-09T11:14:54.879Z,5.10
2022-12-09T11:17:43.133Z,5.13
2022-12-09T11:20:10.334Z,5.17
2022-12-09T11:22:39.527Z,5.47
2022-12-09T11:25:13.069Z,5.23
2022-12-09T11:27:42.776Z,5.43
2022-12-09T11:30:15.210Z,5.70
2022-12-09T11:32:55.968Z,5.73
2022-12-09T11:35:40.014Z,6.00
2022-12-09T11:38:36.388Z,5.87
2022-12-09T11:41:09.427Z,6.17
2022-12-09T11:43:55.875Z,6.17
2022-12-09T11:46:25.482Z,6.07
2022-12-09T11:49:03.712Z,5.70
2022-12-09T11:51:34.125Z,5.53
2022-12-09T11:54:11.624Z,6.10
2022-12-09T11:56:39.377Z,5.90
2022-12-09T11:59:16.401Z,6.33
2022-12-09T12:01:47.618Z,6.53
2022-12-09T12:04:40.704Z,6.27
2022-12-09T12:07:12.594Z,5.83
2022-12-09T12:09:51.926Z,6.00
2022-12-09T12:12:18.685Z,6.37
2022-12-09T12:14:45.682Z,5.93
2022-12-09T12:17:46.836Z,5.83
2022-12-09T12:20:14.464Z,5.53
2022-12-09T12:23:11.292Z,6.17
2022-12-09T12:25:56.640Z,5.70
2022-12-09T12:28:46.157Z,5.83
2022-12-09T12:31:16.642Z,5.90
2022-12-09T12:34:24.087Z,5.90
2022-12-09T12:37:06.415Z,5.87
2022-12-09T12:39:49.060Z,6.23
2022-12-09T12:42:35.257Z,5.50
2022-12-09T12:45:33.043Z,5.80
2022-12-09T12:48:08.981Z,5.90
2022-12-09T12:50:54.254Z,6.70
2022-12-09T12:54:00.253Z,5.70
2022-12-09T12:57:19.750Z,5.97
2022-12-09T13:00:02.431Z,6.20
2022-12-09T13:02:37.198Z,6.57
2022-12-09T13:05:26.325Z,5.50
2022-12-09T13:08:03.072Z,6.03
2022-12-09T13:10:53.442Z,6.93
2022-12-09T13:13:51.730Z,6.30
2022-12-09T13:16:33.032Z,6.80
2022-12-09T13:19:43.159Z,6.80
2022-12-09T13:22:36.270Z,7.30
2022-12-09T13:25:20.816Z,7.47
2022-12-09T13:28:18.242Z,7.33
2022-12-09T13:30:54.364Z,6.87
2022-12-09T13:33:46.842Z,7.63
2022-12-09T13:36:45.927Z,6.73
2022-12-09T13:39:34.242Z,6.80
2022-12-09T13:42:44.851Z,7.60
2022-12-09T13:45:24.589Z,7.50
2022-12-09T13:47:53.562Z,7.63
2022-12-09T13:50:39.273Z,7.37
2022-12-09T13:53:34.026Z,7.87
2022-12-09T13:56:03.727Z,7.03
2022-12-09T13:58:56.652Z,6.57
2022-12-09T14:01:43.423Z,7.57
2022-12-09T14:04:29.820Z,7.43
2022-12-09T14:07:02.888Z,7.47
2022-12-09T14:09:45.652Z,7.37
2022-12-09T14:12:44.335Z,6.93
2022-12-09T14:15:26.493Z,7.07
2022-12-09T14:18:07.056Z,7.77
2022-12-09T14:20:37.445Z,7.70
2022-12-09T14:23:07.686Z,7.53
2022-12-09T14:25:36.974Z,7.03
2022-12-09T14:28:10.292Z,6.63
2022-12-09T14:30:50.386Z,7.57
2022-12-09T14:33:29.263Z,6.53
2022-12-09T14:36:18.307Z,6.77
2022-12-09T14:39:24.918Z,7.63
2022-12-09T14:42:01.112Z,6.90
2022-12-09T14:44:32.396Z,6.93
2022-12-09T14:47:23.087Z,7.33
2022-12-09T14:49:51.527Z,7.17
2022-12-09T14:52:24.364Z,7.03
2022-12-09T14:54:53.119Z,7.17
2022-12-09T14:57:29.198Z,6.60
2022-12-09T14:59:57.009Z,7.07
2022-12-09T15:02:32.086Z,6.70
2022-12-09T15:05:03.486Z,7.50
2022-12-09T15:07:35.239Z,6.57
2022-12-09T15:10:11.267Z,6.17
2022-12-09T15:12:43.889Z,6.70
2022-12-09T15:15:11.631Z,7.23
2022-12-09T15:17:47.962Z,6.43
2022-12-09T15:20:20.758Z,6.43
2022-12-09T15:22:52.788Z,6.20
2022-12-09T15:25:21.921Z,6.07
2022-12-09T15:27:56.194Z,5.77
2022-12-09T15:30:25.534Z,6.43
2022-12-09T15:32:52.560Z,6.63
2022-12-09T15:35:25.941Z,5.97
2022-12-09T15:37:55.097Z,6.10
2022-12-09T15:40:22.559Z,5.80
2022-12-09T15:42:53.173Z,6.10
2022-12-09T15:45:23.038Z,5.97
2022-12-09T15:47:51.740Z,6.03
2022-12-09T15:50:31.090Z,6.20
2022-12-09T15:53:04.978Z,5.83
2022-12-09T15:55:36.763Z,6.80
2022-12-09T15:58:08.793Z,6.20
2022-12-09T16:00:45.396Z,6.30
2022-12-09T16:03:16.706Z,6.13
2022-12-09T16:05:43.593Z,6.40
2022-12-09T16:08:10.729Z,6.00
2022-12-09T16:10:49.817Z,6.03
2022-12-09T16:13:18.092Z,6.17
2022-12-09T16:15:56.111Z,5.90
2022-12-09T16:18:30.268Z,5.97
2022-12-09T16:21:20.298Z,6.07
2022-12-09T16:23:50.256Z,5.53
2022-12-09T16:26:26.358Z,5.77
2022-12-09T16:28:56.074Z,6.40
2022-12-09T16:31:22.984Z,5.83
2022-12-09T16:33:50.525Z,5.97
2022-12-09T16:36:27.706Z,5.93
2022-12-09T16:39:31.526Z,6.30
2022-12-09T16:42:01.779Z,6.17
2022-12-09T16:44:36.068Z,6.00
2022-12-09T16:47:08.492Z,6.20
2022-12-09T16:49:35.215Z,6.13
2022-12-09T16:52:02.042Z,6.53
2022-12-09T16:54:28.809Z,5.93
2022-12-09T16:56:58.653Z,6.07
2022-12-09T16:59:34.003Z,6.30
2022-12-09T17:02:04.858Z,6.13
2022-12-09T17:04:31.629Z,6.07
2022-12-09T17:06:58.408Z,6.23
2022-12-09T17:09:25.193Z,6.17
2022-12-09T17:11:51.927Z,6.30
2022-12-09T17:14:18.701Z,6.20
2022-12-09T17:16:45.397Z,6.43
2022-12-09T17:19:12.339Z,6.50
2022-12-09T17:21:39.015Z,6.67
2022-12-09T17:24:06.163Z,6.23
2022-12-09T17:26:32.879Z,6.57
2022-12-09T17:29:01.760Z,6.37
2022-12-09T17:31:29.113Z,6.43
2022-12-09T17:33:56.956Z,6.50
2022-12-09T17:36:23.698Z,6.43
2022-12-09T17:38:50.423Z,6.17
2022-12-09T17:41:20.531Z,7.10
2022-12-09T17:43:47.361Z,6.47
2022-12-09T17:46:14.382Z,6.37
2022-12-09T17:48:41.959Z,6.67
2022-12-09T17:51:17.865Z,6.47
2022-12-09T17:53:45.436Z,6.43
2022-12-09T17:56:14.957Z,6.03
2022-12-09T17:58:42.281Z,6.67
2022-12-09T18:01:18.241Z,6.67
2022-12-09T18:04:06.221Z,7.33
2022-12-09T18:06:34.225Z,6.53
2022-12-09T18:09:02.974Z,7.20
2022-12-09T18:11:29.666Z,6.90
2022-12-09T18:13:56.467Z,6.60
2022-12-09T18:16:23.320Z,6.33
2022-12-09T18:18:50.533Z,7.23
2022-12-09T18:21:19.629Z,7.10
2022-12-09T18:23:48.208Z,9.27
2022-12-09T18:26:17.060Z,6.90
2022-12-09T18:28:44.085Z,7.53
2022-12-09T18:31:14.240Z,7.27
2022-12-09T18:33:41.936Z,6.93
2022-12-09T18:36:14.066Z,7.10
2022-12-09T18:38:41.305Z,7.33
2022-12-09T18:41:12.823Z,6.83
2022-12-09T18:43:41.056Z,7.37
2022-12-09T18:46:11.031Z,6.33
2022-12-09T18:48:38.328Z,6.70
2022-12-09T18:51:08.665Z,6.90
2022-12-09T18:53:35.299Z,6.93
2022-12-09T18:56:05.914Z,7.20
2022-12-09T18:59:04.206Z,6.43
2022-12-09T19:01:25.967Z,7.00
2022-12-09T19:03:54.318Z,7.17
2022-12-09T19:06:26.968Z,6.50
2022-12-09T19:08:57.149Z,6.73
2022-12-09T19:11:28.999Z,6.53
2022-12-09T19:13:56.364Z,6.73
2022-12-09T19:16:23.967Z,6.43
2022-12-09T19:19:05.317Z,6.97
2022-12-09T19:21:35.808Z,6.43
2022-12-09T19:24:02.607Z,7.80
2022-12-09T19:26:31.547Z,6.47
2022-12-09T19:29:00.867Z,6.70
2022-12-09T19:31:36.147Z,7.10
2022-12-09T19:34:08.165Z,6.80
2022-12-09T19:36:35.311Z,6.10
2022-12-09T19:39:03.275Z,7.67
2022-12-09T19:41:30.000Z,7.77
2022-12-09T19:43:58.390Z,7.17
2022-12-09T19:46:26.726Z,6.87
2022-12-09T19:48:54.122Z,6.47
2022-12-09T19:51:22.109Z,6.60
2022-12-09T19:53:49.619Z,7.27
2022-12-09T19:56:20.305Z,6.63
2022-12-09T19:58:47.801Z,7.23
2022-12-09T20:01:18.669Z,6.43
2022-12-09T20:03:46.952Z,6.43
2022-12-09T20:06:16.451Z,6.77
2022-12-09T20:08:44.415Z,6.77
2022-12-09T20:11:19.336Z,6.63
2022-12-09T20:13:46.702Z,6.90
2022-12-09T20:16:16.214Z,6.73
2022-12-09T20:18:43.703Z,6.97
2022-12-09T20:21:12.176Z,6.50
2022-12-09T20:23:40.361Z,5.97
2022-12-09T20:26:09.485Z,6.70
2022-12-09T20:28:37.384Z,6.90
2022-12-09T20:31:11.031Z,6.67
2022-12-09T20:33:38.346Z,6.67
2022-12-09T20:36:08.883Z,6.47
2022-12-09T20:38:36.356Z,6.70
2022-12-09T20:41:04.907Z,6.73
2022-12-09T20:43:37.911Z,6.57
2022-12-09T20:46:06.597Z,6.50
2022-12-09T20:48:33.848Z,6.43
2022-12-09T20:51:04.249Z,6.20
2022-12-09T20:53:30.955Z,6.53
2022-12-09T20:55:59.163Z,6.43
2022-12-09T20:58:26.289Z,6.67
2022-12-09T21:00:53.050Z,6.97
2022-12-09T21:03:19.965Z,6.47
2022-12-09T21:05:48.432Z,6.67
2022-12-09T21:08:16.191Z,6.37
2022-12-09T21:10:45.691Z,7.07
2022-12-09T21:13:12.336Z,6.70
2022-12-09T21:15:39.302Z,6.93
2022-12-09T21:18:06.012Z,6.63
2022-12-09T21:20:32.782Z,7.40
2022-12-09T21:23:32.170Z,7.53
2022-12-09T21:25:46.453Z,6.53
2022-12-09T21:28:13.351Z,6.57
2022-12-09T21:30:40.162Z,7.40
2022-12-09T21:33:07.101Z,7.30
2022-12-09T21:35:36.412Z,7.37
2022-12-09T21:38:03.457Z,7.13
2022-12-09T21:40:30.120Z,7.53
2022-12-09T21:42:56.971Z,6.93
2022-12-09T21:45:26.078Z,7.10
2022-12-09T21:47:52.833Z,6.97
2022-12-09T21:50:19.727Z,7.17
2022-12-09T21:52:46.571Z,7.03
2022-12-09T21:55:13.236Z,7.67
2022-12-09T21:57:40.272Z,7.60
2022-12-09T22:00:09.184Z,7.50
2022-12-09T22:02:36.162Z,7.63
2022-12-09T22:05:03.053Z,7.20
2022-12-09T22:07:29.839Z,7.50
2022-12-09T22:09:56.483Z,7.67
2022-12-09T22:12:23.209Z,7.27
2022-12-09T22:14:51.490Z,7.60
2022-12-09T22:17:18.492Z,8.00
2022-12-09T22:19:45.306Z,7.93
2022-12-09T22:22:11.957Z,7.60
2022-12-09T22:24:41.217Z,7.40
2022-12-09T22:27:07.963Z,7.20
2022-12-09T22:29:34.581Z,7.43
2022-12-09T22:32:01.761Z,7.23
2022-12-09T22:34:28.472Z,7.47
2022-12-09T22:36:55.479Z,7.53
2022-12-09T22:39:22.273Z,7.33
2022-12-09T22:41:49.313Z,7.70
2022-12-09T22:44:19.023Z,7.60
2022-12-09T22:46:46.035Z,7.83
2022-12-09T22:49:14.158Z,7.37
2022-12-09T22:51:41.717Z,7.67
2022-12-09T22:54:09.239Z,7.73
2022-12-09T22:56:38.080Z,7.63
2022-12-09T22:59:05.538Z,8.07
2022-12-09T23:01:35.526Z,7.03
2022-12-09T23:04:02.704Z,7.60
2022-12-09T23:06:31.143Z,7.37
2022-12-09T23:08:58.675Z,7.87
2022-12-09T23:11:28.005Z,7.83
2022-12-09T23:13:55.406Z,7.97
2022-12-09T23:16:24.037Z,7.40
2022-12-09T23:18:51.445Z,7.43
2022-12-09T23:21:21.292Z,7.77
2022-12-09T23:23:48.833Z,8.10
2022-12-09T23:26:18.060Z,7.93
2022-12-09T23:28:50.464Z,7.80
2022-12-09T23:31:21.605Z,7.43
2022-12-09T23:33:49.876Z,7.50
2022-12-09T23:36:23.905Z,7.67
2022-12-09T23:38:51.837Z,8.00
2022-12-09T23:41:20.861Z,8.17
2022-12-09T23:43:48.996Z,7.30
2022-12-09T23:46:20.947Z,8.10
2022-12-09T23:48:49.012Z,7.50
2022-12-09T23:51:24.364Z,7.83
2022-12-09T23:53:52.445Z,8.03
2022-12-09T23:56:21.224Z,8.03
2022-12-09T23:58:48.541Z,8.07
